sensor_id;sensor_type;location;lat;lon;timestamp;pressure;altitude;pressure_sealevel;temperature;humidity
67373;BME280;54257;54.496;18.412;2022-07-03T00:00:34;100611.52;;;13.23;68.22
67373;BME280;54257;54.496;18.412;2022-07-03T00:03:04;100610.46;;;13.20;68.18
67373;BME280;54257;54.496;18.412;2022-07-03T00:05:33;100609.61;;;13.21;68.18
67373;BME280;54257;54.496;18.412;2022-07-03T00:08:03;100607.70;;;13.20;68.45
67373;BME280;54257;54.496;18.412;2022-07-03T00:10:31;100606.45;;;13.19;68.43
67373;BME280;54257;54.496;18.412;2022-07-03T00:13:00;100605.41;;;13.18;68.58
67373;BME280;54257;54.496;18.412;2022-07-03T00:15:28;100599.73;;;13.18;68.79
67373;BME280;54257;54.496;18.412;2022-07-03T00:17:56;100597.09;;;13.13;68.92
67373;BME280;54257;54.496;18.412;2022-07-03T00:20:29;100595.29;;;13.09;68.95
67373;BME280;54257;54.496;18.412;2022-07-03T00:23:02;100596.29;;;13.06;68.92
67373;BME280;54257;54.496;18.412;2022-07-03T00:25:33;100595.93;;;13.05;68.84
67373;BME280;54257;54.496;18.412;2022-07-03T00:28:01;100594.54;;;13.04;68.79
67373;BME280;54257;54.496;18.412;2022-07-03T00:30:29;100595.03;;;13.03;68.78
67373;BME280;54257;54.496;18.412;2022-07-03T00:33:01;100595.01;;;13.02;68.85
67373;BME280;54257;54.496;18.412;2022-07-03T00:35:32;100595.67;;;13.00;69.03
67373;BME280;54257;54.496;18.412;2022-07-03T00:38:01;100594.95;;;12.99;69.10
67373;BME280;54257;54.496;18.412;2022-07-03T00:40:30;100593.39;;;12.97;68.99
67373;BME280;54257;54.496;18.412;2022-07-03T00:42:59;100596.61;;;12.95;69.15
67373;BME280;54257;54.496;18.412;2022-07-03T00:45:33;100592.05;;;12.89;69.23
67373;BME280;54257;54.496;18.412;2022-07-03T00:48:01;100588.70;;;12.84;69.04
67373;BME280;54257;54.496;18.412;2022-07-03T00:50:34;100585.92;;;12.81;69.04
67373;BME280;54257;54.496;18.412;2022-07-03T00:53:03;100583.16;;;12.80;68.95
67373;BME280;54257;54.496;18.412;2022-07-03T00:55:32;100587.16;;;12.75;69.31
67373;BME280;54257;54.496;18.412;2022-07-03T00:58:04;100591.39;;;12.71;69.36
67373;BME280;54257;54.496;18.412;2022-07-03T01:00:38;100588.80;;;12.71;69.45
67373;BME280;54257;54.496;18.412;2022-07-03T01:03:13;100585.05;;;12.71;69.52
67373;BME280;54257;54.496;18.412;2022-07-03T01:05:45;100583.73;;;12.65;69.46
67373;BME280;54257;54.496;18.412;2022-07-03T01:08:43;100582.25;;;12.59;69.70
67373;BME280;54257;54.496;18.412;2022-07-03T01:14:32;100579.36;;;12.51;70.05
67373;BME280;54257;54.496;18.412;2022-07-03T01:17:09;100574.87;;;12.49;70.15
67373;BME280;54257;54.496;18.412;2022-07-03T01:19:43;100576.52;;;12.46;70.12
67373;BME280;54257;54.496;18.412;2022-07-03T01:22:32;100572.70;;;12.43;70.11
67373;BME280;54257;54.496;18.412;2022-07-03T01:25:14;100571.98;;;12.41;70.06
67373;BME280;54257;54.496;18.412;2022-07-03T01:28:12;100570.20;;;12.38;70.01
67373;BME280;54257;54.496;18.412;2022-07-03T01:30:51;100572.88;;;12.34;70.10
67373;BME280;54257;54.496;18.412;2022-07-03T01:33:27;100571.58;;;12.29;70.43
67373;BME280;54257;54.496;18.412;2022-07-03T01:36:06;100568.50;;;12.21;70.39
67373;BME280;54257;54.496;18.412;2022-07-03T01:38:37;100566.50;;;12.14;70.61
67373;BME280;54257;54.496;18.412;2022-07-03T01:41:06;100565.97;;;12.14;70.83
67373;BME280;54257;54.496;18.412;2022-07-03T01:43:48;100562.89;;;12.14;70.83
67373;BME280;54257;54.496;18.412;2022-07-03T01:46:18;100559.14;;;12.15;70.92
67373;BME280;54257;54.496;18.412;2022-07-03T01:48:49;100562.95;;;12.17;70.94
67373;BME280;54257;54.496;18.412;2022-07-03T01:51:18;100560.06;;;12.18;71.02
67373;BME280;54257;54.496;18.412;2022-07-03T01:53:49;100560.09;;;12.20;70.99
67373;BME280;54257;54.496;18.412;2022-07-03T01:56:22;100557.00;;;12.20;71.15
67373;BME280;54257;54.496;18.412;2022-07-03T01:58:50;100555.27;;;12.19;71.03
67373;BME280;54257;54.496;18.412;2022-07-03T02:01:22;100549.95;;;12.19;71.03
67373;BME280;54257;54.496;18.412;2022-07-03T02:07:01;100544.11;;;12.17;71.01
67373;BME280;54257;54.496;18.412;2022-07-03T02:09:44;100541.48;;;12.14;70.96
67373;BME280;54257;54.496;18.412;2022-07-03T02:12:18;100541.75;;;12.11;70.97
67373;BME280;54257;54.496;18.412;2022-07-03T02:15:04;100541.70;;;12.07;70.91
67373;BME280;54257;54.496;18.412;2022-07-03T02:17:47;100544.05;;;12.05;70.90
67373;BME280;54257;54.496;18.412;2022-07-03T02:20:16;100544.34;;;12.03;71.07
67373;BME280;54257;54.496;18.412;2022-07-03T02:22:58;100542.91;;;11.99;71.07
67373;BME280;54257;54.496;18.412;2022-07-03T02:25:33;100539.10;;;11.97;71.07
67373;BME280;54257;54.496;18.412;2022-07-03T02:30:36;100536.79;;;11.93;71.18
67373;BME280;54257;54.496;18.412;2022-07-03T02:33:11;100535.20;;;11.91;71.11
67373;BME280;54257;54.496;18.412;2022-07-03T02:35:40;100535.31;;;11.89;71.30
67373;BME280;54257;54.496;18.412;2022-07-03T02:38:16;100536.66;;;11.88;71.46
67373;BME280;54257;54.496;18.412;2022-07-03T02:43:49;100539.69;;;11.84;71.52
67373;BME280;54257;54.496;18.412;2022-07-03T02:46:44;100540.04;;;11.84;71.82
67373;BME280;54257;54.496;18.412;2022-07-03T02:52:10;100529.49;;;11.88;72.12
67373;BME280;54257;54.496;18.412;2022-07-03T02:54:46;100535.71;;;11.99;72.44
67373;BME280;54257;54.496;18.412;2022-07-03T02:57:15;100536.39;;;12.16;72.66
67373;BME280;54257;54.496;18.412;2022-07-03T03:00:01;100533.76;;;12.31;72.80
67373;BME280;54257;54.496;18.412;2022-07-03T03:05:09;100529.61;;;12.68;72.38
67373;BME280;54257;54.496;18.412;2022-07-03T03:10:34;100531.79;;;13.06;72.13
67373;BME280;54257;54.496;18.412;2022-07-03T03:13:10;100528.67;;;13.24;71.97
67373;BME280;54257;54.496;18.412;2022-07-03T03:16:17;100524.68;;;13.44;71.79
67373;BME280;54257;54.496;18.412;2022-07-03T03:18:40;100524.52;;;13.71;71.79
67373;BME280;54257;54.496;18.412;2022-07-03T03:21:12;100524.27;;;13.92;71.48
67373;BME280;54257;54.496;18.412;2022-07-03T03:23:49;100521.27;;;14.15;71.26
67373;BME280;54257;54.496;18.412;2022-07-03T03:26:24;100516.41;;;14.41;71.15
67373;BME280;54257;54.496;18.412;2022-07-03T03:28:52;100517.52;;;14.66;70.84
67373;BME280;54257;54.496;18.412;2022-07-03T03:31:23;100516.30;;;14.85;70.74
67373;BME280;54257;54.496;18.412;2022-07-03T03:33:51;100514.58;;;15.07;70.61
67373;BME280;54257;54.496;18.412;2022-07-03T03:36:21;100506.81;;;15.30;70.02
67373;BME280;54257;54.496;18.412;2022-07-03T03:38:53;100506.56;;;15.47;69.69
67373;BME280;54257;54.496;18.412;2022-07-03T03:41:21;100504.80;;;15.66;69.50
67373;BME280;54257;54.496;18.412;2022-07-03T03:43:50;100507.27;;;15.76;69.19
67373;BME280;54257;54.496;18.412;2022-07-03T03:46:18;100505.39;;;15.81;69.02
67373;BME280;54257;54.496;18.412;2022-07-03T03:48:47;100504.02;;;15.85;68.63
67373;BME280;54257;54.496;18.412;2022-07-03T03:51:18;100502.17;;;15.94;68.63
67373;BME280;54257;54.496;18.412;2022-07-03T03:53:46;100501.50;;;15.98;68.13
67373;BME280;54257;54.496;18.412;2022-07-03T03:56:14;100499.73;;;15.88;67.49
67373;BME280;54257;54.496;18.412;2022-07-03T03:58:44;100495.20;;;15.75;67.38
67373;BME280;54257;54.496;18.412;2022-07-03T04:01:15;100492.40;;;15.64;67.33
67373;BME280;54257;54.496;18.412;2022-07-03T04:03:47;100489.05;;;15.56;67.62
67373;BME280;54257;54.496;18.412;2022-07-03T04:06:15;100488.34;;;15.50;67.83
67373;BME280;54257;54.496;18.412;2022-07-03T04:08:43;100491.38;;;15.41;68.11
67373;BME280;54257;54.496;18.412;2022-07-03T04:11:12;100494.79;;;15.33;68.63
67373;BME280;54257;54.496;18.412;2022-07-03T04:13:41;100493.36;;;15.26;68.99
67373;BME280;54257;54.496;18.412;2022-07-03T04:16:09;100488.71;;;15.23;69.57
67373;BME280;54257;54.496;18.412;2022-07-03T04:18:37;100488.89;;;15.24;70.13
67373;BME280;54257;54.496;18.412;2022-07-03T04:21:06;100491.65;;;15.26;70.38
67373;BME280;54257;54.496;18.412;2022-07-03T04:23:38;100494.06;;;15.25;70.67
67373;BME280;54257;54.496;18.412;2022-07-03T04:26:07;100495.75;;;15.23;70.95
67373;BME280;54257;54.496;18.412;2022-07-03T04:28:35;100497.66;;;15.24;71.22
67373;BME280;54257;54.496;18.412;2022-07-03T04:31:03;100495.27;;;15.28;71.37
67373;BME280;54257;54.496;18.412;2022-07-03T04:33:31;100492.20;;;15.32;72.48
67373;BME280;54257;54.496;18.412;2022-07-03T04:36:00;100489.79;;;15.31;72.78
67373;BME280;54257;54.496;18.412;2022-07-03T04:38:32;100487.52;;;15.29;72.61
67373;BME280;54257;54.496;18.412;2022-07-03T04:41:03;100489.09;;;15.30;72.63
67373;BME280;54257;54.496;18.412;2022-07-03T04:43:32;100491.68;;;15.32;72.88
67373;BME280;54257;54.496;18.412;2022-07-03T04:45:59;100494.45;;;15.35;73.22
67373;BME280;54257;54.496;18.412;2022-07-03T04:48:28;100497.38;;;15.35;74.84
67373;BME280;54257;54.496;18.412;2022-07-03T04:50:58;100494.63;;;15.35;74.57
67373;BME280;54257;54.496;18.412;2022-07-03T04:53:26;100489.98;;;15.36;74.73
67373;BME280;54257;54.496;18.412;2022-07-03T04:55:54;100491.39;;;15.39;75.12
67373;BME280;54257;54.496;18.412;2022-07-03T04:58:26;100492.78;;;15.45;75.69
67373;BME280;54257;54.496;18.412;2022-07-03T05:01:08;100490.73;;;15.49;76.04
67373;BME280;54257;54.496;18.412;2022-07-03T05:03:37;100489.72;;;15.54;76.60
67373;BME280;54257;54.496;18.412;2022-07-03T05:06:05;100488.22;;;15.59;76.75
67373;BME280;54257;54.496;18.412;2022-07-03T05:08:32;100491.70;;;15.66;77.60
67373;BME280;54257;54.496;18.412;2022-07-03T05:11:02;100496.23;;;15.76;77.49
67373;BME280;54257;54.496;18.412;2022-07-03T05:13:29;100493.85;;;15.84;77.46
67373;BME280;54257;54.496;18.412;2022-07-03T05:16:03;100494.23;;;15.94;77.58
67373;BME280;54257;54.496;18.412;2022-07-03T05:18:33;100497.89;;;16.06;77.73
67373;BME280;54257;54.496;18.412;2022-07-03T05:21:02;100498.60;;;16.17;77.48
67373;BME280;54257;54.496;18.412;2022-07-03T05:23:30;100493.30;;;16.28;77.29
67373;BME280;54257;54.496;18.412;2022-07-03T05:25:59;100492.45;;;16.43;77.35
67373;BME280;54257;54.496;18.412;2022-07-03T05:28:27;100491.95;;;16.58;76.83
67373;BME280;54257;54.496;18.412;2022-07-03T05:31:01;100492.84;;;16.76;76.51
67373;BME280;54257;54.496;18.412;2022-07-03T05:33:29;100486.80;;;16.94;76.11
67373;BME280;54257;54.496;18.412;2022-07-03T05:35:58;100485.73;;;17.12;75.84
67373;BME280;54257;54.496;18.412;2022-07-03T05:38:29;100483.63;;;17.33;75.45
67373;BME280;54257;54.496;18.412;2022-07-03T05:41:18;100483.36;;;17.58;74.62
67373;BME280;54257;54.496;18.412;2022-07-03T05:43:46;100480.89;;;17.81;74.24
67373;BME280;54257;54.496;18.412;2022-07-03T05:46:16;100481.45;;;18.09;73.93
67373;BME280;54257;54.496;18.412;2022-07-03T05:48:47;100485.57;;;18.40;72.42
67373;BME280;54257;54.496;18.412;2022-07-03T05:51:15;100484.52;;;18.66;71.33
67373;BME280;54257;54.496;18.412;2022-07-03T05:53:43;100483.27;;;18.93;70.69
67373;BME280;54257;54.496;18.412;2022-07-03T05:56:11;100480.42;;;19.19;69.75
67373;BME280;54257;54.496;18.412;2022-07-03T05:58:43;100477.34;;;19.48;68.65
67373;BME280;54257;54.496;18.412;2022-07-03T06:01:15;100475.84;;;19.74;66.04
67373;BME280;54257;54.496;18.412;2022-07-03T06:03:46;100474.09;;;20.00;65.90
67373;BME280;54257;54.496;18.412;2022-07-03T06:06:14;100475.08;;;20.30;65.19
67373;BME280;54257;54.496;18.412;2022-07-03T06:08:51;100472.77;;;20.56;63.29
67373;BME280;54257;54.496;18.412;2022-07-03T06:11:19;100467.55;;;20.78;61.65
67373;BME280;54257;54.496;18.412;2022-07-03T06:13:47;100470.52;;;20.98;60.71
67373;BME280;54257;54.496;18.412;2022-07-03T06:16:16;100472.55;;;21.19;59.25
67373;BME280;54257;54.496;18.412;2022-07-03T06:18:45;100469.30;;;21.36;57.75
67373;BME280;54257;54.496;18.412;2022-07-03T06:21:15;100466.45;;;21.56;57.55
67373;BME280;54257;54.496;18.412;2022-07-03T06:23:44;100463.05;;;21.78;56.94
67373;BME280;54257;54.496;18.412;2022-07-03T06:26:16;100462.95;;;21.99;56.67
67373;BME280;54257;54.496;18.412;2022-07-03T06:28:44;100464.12;;;22.18;55.44
67373;BME280;54257;54.496;18.412;2022-07-03T06:31:12;100463.21;;;22.41;54.72
67373;BME280;54257;54.496;18.412;2022-07-03T06:33:46;100464.35;;;22.52;53.31
67373;BME280;54257;54.496;18.412;2022-07-03T06:36:14;100467.10;;;22.67;52.75
67373;BME280;54257;54.496;18.412;2022-07-03T06:38:42;100459.89;;;22.84;52.53
67373;BME280;54257;54.496;18.412;2022-07-03T06:41:11;100458.77;;;23.08;52.11
67373;BME280;54257;54.496;18.412;2022-07-03T06:43:39;100458.22;;;23.28;49.44
67373;BME280;54257;54.496;18.412;2022-07-03T06:46:12;100460.67;;;23.40;48.52
67373;BME280;54257;54.496;18.412;2022-07-03T06:48:47;100459.79;;;23.41;47.66
67373;BME280;54257;54.496;18.412;2022-07-03T06:51:15;100457.13;;;23.48;47.84
67373;BME280;54257;54.496;18.412;2022-07-03T06:53:46;100457.38;;;23.58;48.15
67373;BME280;54257;54.496;18.412;2022-07-03T06:56:14;100452.84;;;23.71;45.88
67373;BME280;54257;54.496;18.412;2022-07-03T06:58:42;100453.17;;;23.77;44.07
67373;BME280;54257;54.496;18.412;2022-07-03T07:01:10;100453.08;;;23.69;43.79
67373;BME280;54257;54.496;18.412;2022-07-03T07:03:38;100450.75;;;23.76;44.37
67373;BME280;54257;54.496;18.412;2022-07-03T07:06:05;100447.02;;;24.01;45.38
67373;BME280;54257;54.496;18.412;2022-07-03T07:08:39;100451.21;;;24.29;43.36
67373;BME280;54257;54.496;18.412;2022-07-03T07:11:08;100451.91;;;24.41;42.00
67373;BME280;54257;54.496;18.412;2022-07-03T07:13:36;100450.00;;;24.57;42.63
67373;BME280;54257;54.496;18.412;2022-07-03T07:16:04;100447.16;;;24.89;43.72
67373;BME280;54257;54.496;18.412;2022-07-03T07:18:34;100449.48;;;25.28;42.11
67373;BME280;54257;54.496;18.412;2022-07-03T07:21:03;100451.32;;;25.44;40.62
67373;BME280;54257;54.496;18.412;2022-07-03T07:23:31;100448.46;;;25.46;40.61
67373;BME280;54257;54.496;18.412;2022-07-03T07:26:00;100446.23;;;25.59;40.45
67373;BME280;54257;54.496;18.412;2022-07-03T07:28:28;100447.41;;;25.84;40.81
67373;BME280;54257;54.496;18.412;2022-07-03T07:30:58;100447.48;;;25.91;39.89
67373;BME280;54257;54.496;18.412;2022-07-03T07:33:28;100443.17;;;25.76;39.55
67373;BME280;54257;54.496;18.412;2022-07-03T07:36:01;100444.05;;;25.66;39.49
67373;BME280;54257;54.496;18.412;2022-07-03T07:38:29;100443.61;;;25.91;40.63
67373;BME280;54257;54.496;18.412;2022-07-03T07:40:58;100444.13;;;26.23;40.25
67373;BME280;54257;54.496;18.412;2022-07-03T07:43:26;100445.75;;;26.56;40.63
67373;BME280;54257;54.496;18.412;2022-07-03T07:45:54;100432.43;;;27.01;41.15
67373;BME280;54257;54.496;18.412;2022-07-03T07:48:27;100436.25;;;27.54;39.81
67373;BME280;54257;54.496;18.412;2022-07-03T07:50:59;100437.84;;;27.57;36.06
67373;BME280;54257;54.496;18.412;2022-07-03T07:53:28;100433.56;;;27.35;36.62
67373;BME280;54257;54.496;18.412;2022-07-03T07:55:59;100435.86;;;27.51;37.60
67373;BME280;54257;54.496;18.412;2022-07-03T07:58:30;100434.92;;;27.67;37.17
67373;BME280;54257;54.496;18.412;2022-07-03T08:00:58;100431.66;;;27.74;37.45
67373;BME280;54257;54.496;18.412;2022-07-03T08:03:44;100430.74;;;27.75;37.05
67373;BME280;54257;54.496;18.412;2022-07-03T08:06:31;100426.09;;;27.87;37.08
67373;BME280;54257;54.496;18.412;2022-07-03T08:08:59;100425.59;;;28.09;36.77
67373;BME280;54257;54.496;18.412;2022-07-03T08:11:27;100420.71;;;28.26;36.54
67373;BME280;54257;54.496;18.412;2022-07-03T08:14:03;100420.93;;;28.50;35.34
67373;BME280;54257;54.496;18.412;2022-07-03T08:16:34;100422.76;;;28.31;34.47
67373;BME280;54257;54.496;18.412;2022-07-03T08:19:05;100418.70;;;28.49;36.18
67373;BME280;54257;54.496;18.412;2022-07-03T08:21:34;100413.19;;;28.85;35.22
67373;BME280;54257;54.496;18.412;2022-07-03T08:24:02;100403.45;;;28.89;34.82
67373;BME280;54257;54.496;18.412;2022-07-03T08:26:33;100402.98;;;28.88;34.73
67373;BME280;54257;54.496;18.412;2022-07-03T08:29:05;100405.95;;;28.96;34.47
67373;BME280;54257;54.496;18.412;2022-07-03T08:31:34;100402.73;;;29.03;34.20
67373;BME280;54257;54.496;18.412;2022-07-03T08:34:05;100401.52;;;28.96;34.51
67373;BME280;54257;54.496;18.412;2022-07-03T08:36:40;100403.88;;;28.91;34.79
67373;BME280;54257;54.496;18.412;2022-07-03T08:39:09;100405.88;;;29.11;34.89
67373;BME280;54257;54.496;18.412;2022-07-03T08:41:40;100403.70;;;29.18;34.02
67373;BME280;54257;54.496;18.412;2022-07-03T08:44:09;100410.89;;;29.12;33.76
67373;BME280;54257;54.496;18.412;2022-07-03T08:46:40;100407.52;;;28.89;33.74
67373;BME280;54257;54.496;18.412;2022-07-03T08:49:12;100403.91;;;28.91;34.22
67373;BME280;54257;54.496;18.412;2022-07-03T08:51:41;100402.97;;;29.09;34.97
67373;BME280;54257;54.496;18.412;2022-07-03T08:54:13;100403.73;;;29.54;33.98
67373;BME280;54257;54.496;18.412;2022-07-03T08:56:42;100406.29;;;29.65;32.69
67373;BME280;54257;54.496;18.412;2022-07-03T08:59:12;100399.50;;;29.70;33.09
67373;BME280;54257;54.496;18.412;2022-07-03T09:01:41;100397.35;;;29.86;33.28
67373;BME280;54257;54.496;18.412;2022-07-03T09:04:17;100394.89;;;30.11;33.13
67373;BME280;54257;54.496;18.412;2022-07-03T09:06:46;100392.87;;;30.22;32.05
67373;BME280;54257;54.496;18.412;2022-07-03T09:09:14;100398.08;;;29.85;31.13
67373;BME280;54257;54.496;18.412;2022-07-03T09:11:41;100394.63;;;29.63;31.95
67373;BME280;54257;54.496;18.412;2022-07-03T09:14:10;100393.84;;;29.58;31.95
67373;BME280;54257;54.496;18.412;2022-07-03T09:16:38;100392.05;;;29.58;32.10
67373;BME280;54257;54.496;18.412;2022-07-03T09:19:09;100385.88;;;29.89;33.00
67373;BME280;54257;54.496;18.412;2022-07-03T09:21:42;100380.84;;;30.31;32.09
67373;BME280;54257;54.496;18.412;2022-07-03T09:24:16;100381.27;;;30.57;31.80
67373;BME280;54257;54.496;18.412;2022-07-03T09:26:51;100380.35;;;30.84;30.72
67373;BME280;54257;54.496;18.412;2022-07-03T09:29:20;100384.48;;;30.53;30.24
67373;BME280;54257;54.496;18.412;2022-07-03T09:31:55;100375.31;;;30.68;30.87
67373;BME280;54257;54.496;18.412;2022-07-03T09:34:23;100374.46;;;30.65;30.32
67373;BME280;54257;54.496;18.412;2022-07-03T09:36:52;100374.54;;;29.91;31.27
67373;BME280;54257;54.496;18.412;2022-07-03T09:39:31;100374.85;;;29.41;31.41
67373;BME280;54257;54.496;18.412;2022-07-03T09:42:05;100370.20;;;29.06;32.96
67373;BME280;54257;54.496;18.412;2022-07-03T09:44:41;100368.10;;;29.29;33.94
67373;BME280;54257;54.496;18.412;2022-07-03T09:47:17;100366.23;;;29.63;34.00
67373;BME280;54257;54.496;18.412;2022-07-03T09:49:52;100360.99;;;29.87;33.50
67373;BME280;54257;54.496;18.412;2022-07-03T09:52:44;100362.41;;;30.21;32.56
67373;BME280;54257;54.496;18.412;2022-07-03T09:55:18;100363.65;;;30.18;31.70
67373;BME280;54257;54.496;18.412;2022-07-03T10:00:28;100361.05;;;29.89;32.83
67373;BME280;54257;54.496;18.412;2022-07-03T10:03:08;100360.20;;;29.67;32.87
67373;BME280;54257;54.496;18.412;2022-07-03T10:05:39;100358.30;;;29.57;32.63
67373;BME280;54257;54.496;18.412;2022-07-03T10:08:10;100353.86;;;29.61;32.95
67373;BME280;54257;54.496;18.412;2022-07-03T10:10:43;100349.60;;;29.36;32.38
67373;BME280;54257;54.496;18.412;2022-07-03T10:13:12;100345.38;;;29.07;32.95
67373;BME280;54257;54.496;18.412;2022-07-03T10:15:41;100341.90;;;28.99;33.83
67373;BME280;54257;54.496;18.412;2022-07-03T10:18:11;100338.24;;;29.28;33.78
67373;BME280;54257;54.496;18.412;2022-07-03T10:23:11;100330.81;;;29.57;33.39
67373;BME280;54257;54.496;18.412;2022-07-03T10:25:47;100333.52;;;29.34;32.95
67373;BME280;54257;54.496;18.412;2022-07-03T10:28:16;100324.71;;;29.14;33.49
67373;BME280;54257;54.496;18.412;2022-07-03T10:30:48;100329.70;;;29.14;32.81
67373;BME280;54257;54.496;18.412;2022-07-03T10:33:17;100328.52;;;29.06;33.39
67373;BME280;54257;54.496;18.412;2022-07-03T10:35:57;100326.52;;;29.26;32.73
67373;BME280;54257;54.496;18.412;2022-07-03T10:38:38;100322.20;;;29.47;31.87
67373;BME280;54257;54.496;18.412;2022-07-03T10:41:25;100322.40;;;29.34;32.91
67373;BME280;54257;54.496;18.412;2022-07-03T10:44:14;100320.05;;;29.38;32.30
67373;BME280;54257;54.496;18.412;2022-07-03T10:47:01;100315.31;;;29.60;31.96
67373;BME280;54257;54.496;18.412;2022-07-03T10:49:30;100317.59;;;29.70;31.55
67373;BME280;54257;54.496;18.412;2022-07-03T10:52:00;100315.22;;;29.83;31.94
67373;BME280;54257;54.496;18.412;2022-07-03T10:54:33;100308.95;;;30.25;31.51
67373;BME280;54257;54.496;18.412;2022-07-03T10:57:09;100311.24;;;30.42;30.42
67373;BME280;54257;54.496;18.412;2022-07-03T11:02:44;100303.01;;;30.27;30.75
67373;BME280;54257;54.496;18.412;2022-07-03T11:05:26;100305.19;;;30.08;30.28
67373;BME280;54257;54.496;18.412;2022-07-03T11:15:32;100304.83;;;29.53;31.02
67373;BME280;54257;54.496;18.412;2022-07-03T11:26:34;100298.08;;;28.43;31.98
67373;BME280;54257;54.496;18.412;2022-07-03T11:29:05;100292.96;;;28.40;32.20
67373;BME280;54257;54.496;18.412;2022-07-03T11:31:34;100290.86;;;28.49;32.74
67373;BME280;54257;54.496;18.412;2022-07-03T11:34:02;100288.54;;;28.73;32.64
67373;BME280;54257;54.496;18.412;2022-07-03T11:36:31;100286.85;;;28.96;32.82
67373;BME280;54257;54.496;18.412;2022-07-03T11:41:30;100288.44;;;29.12;31.13
67373;BME280;54257;54.496;18.412;2022-07-03T11:44:10;100291.02;;;29.16;31.51
67373;BME280;54257;54.496;18.412;2022-07-03T11:46:49;100285.88;;;28.94;31.14
67373;BME280;54257;54.496;18.412;2022-07-03T11:49:22;100282.52;;;28.54;31.02
67373;BME280;54257;54.496;18.412;2022-07-03T11:52:01;100278.48;;;28.44;32.07
67373;BME280;54257;54.496;18.412;2022-07-03T11:54:53;100279.66;;;28.48;32.73
67373;BME280;54257;54.496;18.412;2022-07-03T11:57:23;100280.39;;;28.68;32.68
67373;BME280;54257;54.496;18.412;2022-07-03T11:59:57;100268.90;;;28.72;32.42
67373;BME280;54257;54.496;18.412;2022-07-03T12:02:33;100270.55;;;28.94;32.27
67373;BME280;54257;54.496;18.412;2022-07-03T12:05:15;100273.33;;;28.52;31.04
67373;BME280;54257;54.496;18.412;2022-07-03T12:07:44;100266.51;;;28.04;31.76
67373;BME280;54257;54.496;18.412;2022-07-03T12:10:12;100268.33;;;27.88;32.46
67373;BME280;54257;54.496;18.412;2022-07-03T12:12:39;100264.91;;;27.86;33.38
67373;BME280;54257;54.496;18.412;2022-07-03T12:15:09;100262.65;;;27.71;32.75
67373;BME280;54257;54.496;18.412;2022-07-03T12:17:43;100260.52;;;28.00;32.13
67373;BME280;54257;54.496;18.412;2022-07-03T12:20:12;100256.13;;;28.21;32.07
67373;BME280;54257;54.496;18.412;2022-07-03T12:22:41;100250.81;;;28.32;32.41
67373;BME280;54257;54.496;18.412;2022-07-03T12:25:13;100250.62;;;28.43;30.83
67373;BME280;54257;54.496;18.412;2022-07-03T12:27:43;100253.17;;;28.44;30.62
67373;BME280;54257;54.496;18.412;2022-07-03T12:30:24;100255.93;;;28.35;30.02
67373;BME280;54257;54.496;18.412;2022-07-03T12:32:57;100249.14;;;28.51;32.15
67373;BME280;54257;54.496;18.412;2022-07-03T12:35:25;100247.31;;;28.65;32.55
67373;BME280;54257;54.496;18.412;2022-07-03T12:37:54;100246.20;;;28.56;33.17
67373;BME280;54257;54.496;18.412;2022-07-03T12:40:22;100244.91;;;28.54;33.27
67373;BME280;54257;54.496;18.412;2022-07-03T12:42:51;100246.56;;;28.69;31.98
67373;BME280;54257;54.496;18.412;2022-07-03T12:45:26;100242.81;;;28.70;30.98
67373;BME280;54257;54.496;18.412;2022-07-03T12:48:05;100238.19;;;28.59;32.12
67373;BME280;54257;54.496;18.412;2022-07-03T12:50:46;100236.83;;;28.20;33.47
67373;BME280;54257;54.496;18.412;2022-07-03T12:53:32;100229.00;;;28.22;34.03
67373;BME280;54257;54.496;18.412;2022-07-03T12:56:02;100230.02;;;28.29;34.76
67373;BME280;54257;54.496;18.412;2022-07-03T12:58:34;100232.17;;;28.46;33.88
67373;BME280;54257;54.496;18.412;2022-07-03T13:01:25;100229.10;;;28.34;34.51
67373;BME280;54257;54.496;18.412;2022-07-03T13:03:54;100226.98;;;27.96;35.44
67373;BME280;54257;54.496;18.412;2022-07-03T13:06:23;100224.02;;;27.82;35.42
67373;BME280;54257;54.496;18.412;2022-07-03T13:08:56;100224.21;;;27.82;35.46
67373;BME280;54257;54.496;18.412;2022-07-03T13:14:18;100225.39;;;27.97;36.42
67373;BME280;54257;54.496;18.412;2022-07-03T13:16:48;100224.00;;;28.00;36.91
67373;BME280;54257;54.496;18.412;2022-07-03T13:19:29;100221.65;;;27.98;36.90
67373;BME280;54257;54.496;18.412;2022-07-03T13:21:58;100215.22;;;28.10;36.79
67373;BME280;54257;54.496;18.412;2022-07-03T13:24:28;100216.60;;;28.10;36.11
67373;BME280;54257;54.496;18.412;2022-07-03T13:26:56;100213.67;;;28.03;35.31
67373;BME280;54257;54.496;18.412;2022-07-03T13:29:26;100211.16;;;28.00;36.07
67373;BME280;54257;54.496;18.412;2022-07-03T13:31:54;100208.89;;;28.04;35.97
67373;BME280;54257;54.496;18.412;2022-07-03T13:34:23;100204.86;;;27.96;34.71
67373;BME280;54257;54.496;18.412;2022-07-03T13:36:51;100200.69;;;27.82;35.76
67373;BME280;54257;54.496;18.412;2022-07-03T13:39:22;100200.70;;;27.64;36.69
67373;BME280;54257;54.496;18.412;2022-07-03T13:41:54;100197.89;;;27.46;37.94
67373;BME280;54257;54.496;18.412;2022-07-03T13:44:25;100197.45;;;27.37;38.52
67373;BME280;54257;54.496;18.412;2022-07-03T13:46:56;100194.19;;;27.28;39.09
67373;BME280;54257;54.496;18.412;2022-07-03T13:49:24;100196.48;;;27.17;39.00
67373;BME280;54257;54.496;18.412;2022-07-03T13:51:56;100201.69;;;26.81;39.29
67373;BME280;54257;54.496;18.412;2022-07-03T13:54:25;100201.34;;;26.70;40.27